createdAt,value
2017-11-07T00:00:00.374Z,8.16
2017-11-07T00:01:00.361Z,8.21
2017-11-07T00:02:00.330Z,8.20
2017-11-07T00:03:00.312Z,8.17
2017-11-07T00:04:00.293Z,8.21
2017-11-07T00:05:00.265Z,8.17
2017-11-07T00:06:00.240Z,8.23
2017-11-07T00:07:00.221Z,8.20
2017-11-07T00:08:00.195Z,8.21
2017-11-07T00:09:00.174Z,8.14
2017-11-07T00:10:00.150Z,8.19
2017-11-07T00:11:00.133Z,8.17
2017-11-07T00:12:00.107Z,8.13
2017-11-07T00:13:00.080Z,8.19
2017-11-07T00:14:00.064Z,8.19
2017-11-07T00:15:00.042Z,8.19
2017-11-07T00:16:00.018Z,8.20
2017-11-07T00:16:59.989Z,8.19
2017-11-07T00:17:59.972Z,8.20
2017-11-07T00:18:59.949Z,8.17
2017-11-07T00:19:59.928Z,8.13
2017-11-07T00:20:59.901Z,8.12
2017-11-07T00:21:59.882Z,8.19
2017-11-07T00:22:59.864Z,8.14
2017-11-07T00:23:59.835Z,8.12
2017-11-07T00:24:59.821Z,8.19
2017-11-07T00:25:59.788Z,8.13
2017-11-07T00:26:59.773Z,8.21
2017-11-07T00:27:59.744Z,8.24
2017-11-07T00:28:59.729Z,8.16
2017-11-07T00:29:59.698Z,8.10
2017-11-07T00:30:59.675Z,8.12
2017-11-07T00:31:59.662Z,8.16
2017-11-07T00:32:59.633Z,8.16
2017-11-07T00:33:59.609Z,8.14
2017-11-07T00:34:59.585Z,8.19
2017-11-07T00:35:59.566Z,8.19
2017-11-07T00:36:59.541Z,8.14
2017-11-07T00:37:59.522Z,8.20
2017-11-07T00:38:59.511Z,8.20
2017-11-07T00:39:59.482Z,8.24
2017-11-07T00:40:59.453Z,8.21
2017-11-07T00:41:59.431Z,8.12
2017-11-07T00:42:59.404Z,8.10
2017-11-07T00:43:59.396Z,8.10
2017-11-07T00:44:59.377Z,8.14
2017-11-07T00:45:59.362Z,8.13
2017-11-07T00:46:59.315Z,8.06
2017-11-07T00:47:59.295Z,8.06
2017-11-07T00:48:59.277Z,7.95
2017-11-07T00:49:59.248Z,7.98
2017-11-07T00:50:59.229Z,8.09
2017-11-07T00:51:59.210Z,7.95
2017-11-07T00:52:59.197Z,8.06
2017-11-07T00:53:59.156Z,7.94
2017-11-07T00:54:59.139Z,7.94
2017-11-07T00:55:59.123Z,8.09
2017-11-07T00:56:59.089Z,7.99
2017-11-07T00:57:59.082Z,7.95
2017-11-07T00:58:59.044Z,7.94
2017-11-07T00:59:59.022Z,8.05
2017-11-07T01:00:59.001Z,7.94
2017-11-07T01:01:58.980Z,7.96
2017-11-07T01:02:58.963Z,7.99
2017-11-07T01:03:58.929Z,7.99
2017-11-07T01:05:26.683Z,8.04
2017-11-07T01:05:58.895Z,8.02
2017-11-07T01:06:58.883Z,8.09
2017-11-07T01:07:58.840Z,7.96
2017-11-07T01:08:58.828Z,7.92
2017-11-07T01:09:58.806Z,8.06
2017-11-07T01:10:58.773Z,7.96
2017-11-07T01:11:58.747Z,7.94
2017-11-07T01:12:58.729Z,7.87
2017-11-07T01:13:58.703Z,7.94
2017-11-07T01:14:58.691Z,7.88
2017-11-07T01:15:58.658Z,7.94
2017-11-07T01:16:58.647Z,7.94
2017-11-07T01:17:58.617Z,7.88
2017-11-07T01:18:58.597Z,7.94
2017-11-07T01:19:58.569Z,7.92
2017-11-07T01:20:58.547Z,7.91
2017-11-07T01:21:58.521Z,7.99
2017-11-07T01:22:58.499Z,7.96
2017-11-07T01:23:58.476Z,7.88
2017-11-07T01:24:58.453Z,7.91
2017-11-07T01:25:58.430Z,7.86
2017-11-07T01:26:58.413Z,7.98
2017-11-07T01:27:58.386Z,7.86
2017-11-07T01:28:58.370Z,7.88
2017-11-07T01:29:58.344Z,7.92
2017-11-07T01:30:58.366Z,7.86
2017-11-07T01:31:58.302Z,7.88
2017-11-07T01:32:58.275Z,7.95
2017-11-07T01:33:58.278Z,7.88
2017-11-07T01:34:58.224Z,7.84
2017-11-07T01:35:58.206Z,7.98
2017-11-07T01:36:58.187Z,7.88
2017-11-07T01:37:58.160Z,7.95
2017-11-07T01:38:58.136Z,7.95
2017-11-07T01:39:58.114Z,7.96
2017-11-07T01:40:58.089Z,7.95
2017-11-07T01:41:58.067Z,8.09
2017-11-07T01:42:58.052Z,7.98
2017-11-07T01:43:58.024Z,7.99
2017-11-07T01:44:58.016Z,7.98
2017-11-07T01:45:57.978Z,7.99
2017-11-07T01:46:57.957Z,8.04
2017-11-07T01:47:57.933Z,7.88
2017-11-07T01:48:57.909Z,7.86
2017-11-07T01:49:57.884Z,7.94
2017-11-07T01:50:57.865Z,7.92
2017-11-07T01:51:57.840Z,7.95
2017-11-07T01:52:57.819Z,7.99
2017-11-07T01:53:57.794Z,7.96
2017-11-07T01:54:57.772Z,7.98
2017-11-07T01:55:57.757Z,8.01
2017-11-07T01:56:57.729Z,7.87
2017-11-07T01:57:57.704Z,7.91
2017-11-07T01:58:57.678Z,7.92
2017-11-07T01:59:57.669Z,7.95
2017-11-07T02:00:57.634Z,7.92
2017-11-07T02:01:57.644Z,7.94
2017-11-07T02:02:57.588Z,8.02
2017-11-07T02:03:57.572Z,7.99
2017-11-07T02:04:57.545Z,7.96
2017-11-07T02:05:57.558Z,7.94
2017-11-07T02:06:57.504Z,7.98
2017-11-07T02:07:57.475Z,7.96
2017-11-07T02:08:57.474Z,7.95
2017-11-07T02:09:57.453Z,7.91
2017-11-07T02:10:57.449Z,7.91
2017-11-07T02:11:57.383Z,7.98
2017-11-07T02:12:57.372Z,8.01
2017-11-07T02:13:57.337Z,7.88
2017-11-07T02:14:57.323Z,7.98
2017-11-07T02:15:57.293Z,7.94
2017-11-07T02:16:57.270Z,7.96
2017-11-07T02:17:57.249Z,7.99
2017-11-07T02:18:57.232Z,8.02
2017-11-07T02:19:57.204Z,7.95
2017-11-07T02:20:57.180Z,7.96
2017-11-07T02:21:57.167Z,7.94
2017-11-07T02:22:57.135Z,7.96
2017-11-07T02:23:57.116Z,8.01
2017-11-07T02:24:57.096Z,7.77
2017-11-07T02:25:57.078Z,7.94
2017-11-07T02:26:57.045Z,7.86
2017-11-07T02:27:57.029Z,7.87
2017-11-07T02:28:57.001Z,7.81
2017-11-07T02:29:56.980Z,7.81
2017-11-07T02:30:56.963Z,7.78
2017-11-07T02:31:56.933Z,7.88
2017-11-07T02:32:56.913Z,7.83
2017-11-07T02:33:56.884Z,7.83
2017-11-07T02:34:56.869Z,7.83
2017-11-07T02:35:59.688Z,7.84
2017-11-07T02:36:56.825Z,7.74
2017-11-07T02:37:56.793Z,7.78
2017-11-07T02:38:56.772Z,7.86
2017-11-07T02:39:56.753Z,7.80
2017-11-07T02:40:56.728Z,7.84
2017-11-07T02:41:56.703Z,7.84
2017-11-07T02:42:56.680Z,7.83
2017-11-07T02:43:56.674Z,7.84
2017-11-07T02:44:56.636Z,7.81
2017-11-07T02:45:56.611Z,7.86
2017-11-07T02:46:56.588Z,7.87
2017-11-07T02:47:56.573Z,7.83
2017-11-07T02:48:56.567Z,7.84
2017-11-07T02:49:56.538Z,7.86
2017-11-07T02:50:56.535Z,8.01
2017-11-07T02:51:56.476Z,7.88
2017-11-07T02:52:56.456Z,7.99
2017-11-07T02:53:56.445Z,7.88
2017-11-07T02:54:56.412Z,7.94
2017-11-07T02:55:56.393Z,7.92
2017-11-07T02:56:56.364Z,7.94
2017-11-07T02:57:56.341Z,7.94
2017-11-07T02:58:56.318Z,7.86
2017-11-07T02:59:56.295Z,7.94
2017-11-07T03:00:56.279Z,7.96
2017-11-07T03:01:56.256Z,7.92
2017-11-07T03:02:56.236Z,7.96
2017-11-07T03:03:56.212Z,7.94
2017-11-07T03:04:56.187Z,7.92
2017-11-07T03:05:56.164Z,7.86
2017-11-07T03:06:56.138Z,7.91
2017-11-07T03:07:56.119Z,7.83
2017-11-07T03:08:56.090Z,7.84
2017-11-07T03:09:56.075Z,7.81
2017-11-07T03:10:56.050Z,7.95
2017-11-07T03:11:56.031Z,7.78
2017-11-07T03:12:56.008Z,7.83
2017-11-07T03:13:55.978Z,7.84
2017-11-07T03:14:55.962Z,7.84
2017-11-07T03:15:55.930Z,7.78
2017-11-07T03:16:55.909Z,7.88
2017-11-07T03:17:55.891Z,7.88
2017-11-07T03:18:55.864Z,7.87
2017-11-07T03:19:55.851Z,7.80
2017-11-07T03:20:55.818Z,7.84
2017-11-07T03:21:55.802Z,7.81
2017-11-07T03:22:55.779Z,7.80
2017-11-07T03:23:55.749Z,7.84
2017-11-07T03:24:55.735Z,7.87
2017-11-07T03:25:55.702Z,7.77
2017-11-07T03:26:55.682Z,7.83
2017-11-07T03:27:55.661Z,7.83
2017-11-07T03:28:55.644Z,7.86
2017-11-07T03:29:55.655Z,7.83
2017-11-07T03:30:55.641Z,7.81
2017-11-07T03:31:55.573Z,7.73
2017-11-07T03:32:55.546Z,7.83
2017-11-07T03:33:55.523Z,7.80
2017-11-07T03:34:55.509Z,7.71
2017-11-07T03:35:55.502Z,7.68
2017-11-07T03:36:55.458Z,7.74
2017-11-07T03:37:55.433Z,7.74
2017-11-07T03:38:55.421Z,7.77
2017-11-07T03:39:55.388Z,7.84
2017-11-07T03:40:55.363Z,7.73
2017-11-07T03:41:55.342Z,7.81
2017-11-07T03:42:55.326Z,7.74
2017-11-07T03:43:55.293Z,7.69
2017-11-07T03:44:55.274Z,7.76
2017-11-07T03:45:55.252Z,7.73
2017-11-07T03:46:55.228Z,7.84
2017-11-07T03:47:55.207Z,7.77
2017-11-07T03:48:55.186Z,7.73
2017-11-07T03:49:55.159Z,7.68
2017-11-07T03:50:55.137Z,7.64
2017-11-07T03:51:55.118Z,7.62
2017-11-07T03:52:55.098Z,7.62
2017-11-07T03:53:55.069Z,7.71
2017-11-07T03:54:55.050Z,7.58
2017-11-07T03:55:55.029Z,7.55
2017-11-07T03:56:55.005Z,7.69
2017-11-07T03:57:54.977Z,7.50
2017-11-07T03:58:54.967Z,7.61
2017-11-07T03:59:54.928Z,7.55
2017-11-07T04:00:54.916Z,7.62
2017-11-07T04:01:54.883Z,7.46
2017-11-07T04:02:54.868Z,7.57
2017-11-07T04:03:54.841Z,7.52
2017-11-07T04:04:54.819Z,7.49
2017-11-07T04:05:54.796Z,7.44
2017-11-07T04:06:54.772Z,7.42
2017-11-07T04:07:54.764Z,7.40
2017-11-07T04:08:54.728Z,7.47
2017-11-07T04:09:54.739Z,7.39
2017-11-07T04:10:54.681Z,7.37
2017-11-07T04:11:54.660Z,7.40
2017-11-07T04:12:54.636Z,7.40
2017-11-07T04:13:54.614Z,7.33
2017-11-07T04:14:54.593Z,7.29
2017-11-07T04:15:54.570Z,7.31
2017-11-07T04:16:54.562Z,7.33
2017-11-07T04:17:54.530Z,7.44
2017-11-07T04:18:54.500Z,7.36
2017-11-07T04:19:54.477Z,7.28
2017-11-07T04:20:54.456Z,7.36
2017-11-07T04:21:54.428Z,7.36
2017-11-07T04:22:54.412Z,7.26
2017-11-07T04:23:54.392Z,7.31
2017-11-07T04:24:54.361Z,7.26
2017-11-07T04:25:54.344Z,7.25
2017-11-07T04:26:54.333Z,7.25
2017-11-07T04:27:54.297Z,7.29
2017-11-07T04:28:54.277Z,7.29
2017-11-07T04:29:54.246Z,7.28
2017-11-07T04:30:54.231Z,7.24
2017-11-07T04:31:54.205Z,7.33
2017-11-07T04:32:54.185Z,7.21
2017-11-07T04:33:54.162Z,7.24
2017-11-07T04:34:54.138Z,7.28
2017-11-07T04:35:54.121Z,7.29
2017-11-07T04:36:54.087Z,7.29
2017-11-07T04:37:54.072Z,7.33
2017-11-07T04:38:54.045Z,7.28
2017-11-07T04:39:54.020Z,7.25
2017-11-07T04:40:53.995Z,7.34
2017-11-07T04:41:53.979Z,7.31
2017-11-07T04:42:53.951Z,7.31
2017-11-07T04:43:53.930Z,7.36
2017-11-07T04:44:53.905Z,7.31
2017-11-07T04:45:53.881Z,7.34
2017-11-07T04:46:53.857Z,7.34
2017-11-07T04:47:53.836Z,7.36
2017-11-07T04:48:53.824Z,7.34
2017-11-07T04:49:53.822Z,7.33
2017-11-07T04:50:53.767Z,7.33
2017-11-07T04:51:53.748Z,7.25
2017-11-07T04:52:53.724Z,7.21
2017-11-07T04:53:53.696Z,7.24
2017-11-07T04:54:53.673Z,7.28
2017-11-07T04:55:53.655Z,7.22
2017-11-07T04:56:53.633Z,7.25
2017-11-07T04:57:53.608Z,7.31
2017-11-07T04:58:53.585Z,7.26
2017-11-07T04:59:53.562Z,7.29
2017-11-07T05:00:53.540Z,7.33
2017-11-07T05:01:53.520Z,7.31
2017-11-07T05:02:53.495Z,7.33
2017-11-07T05:03:53.468Z,7.31
2017-11-07T05:04:53.452Z,7.26
2017-11-07T05:05:53.427Z,7.34
2017-11-07T05:06:53.415Z,7.33
2017-11-07T05:07:53.376Z,7.33
2017-11-07T05:08:53.359Z,7.29
2017-11-07T05:09:53.330Z,7.36
2017-11-07T05:10:53.309Z,7.33
2017-11-07T05:11:53.284Z,7.37
2017-11-07T05:12:53.263Z,7.37
2017-11-07T05:13:53.238Z,7.26
2017-11-07T05:14:53.220Z,7.33
2017-11-07T05:15:53.194Z,7.29
2017-11-07T05:16:53.171Z,7.29
2017-11-07T05:17:53.161Z,7.29
2017-11-07T05:18:53.141Z,7.33
2017-11-07T05:19:53.104Z,7.31
2017-11-07T05:20:53.084Z,7.39
2017-11-07T05:21:53.062Z,7.24
2017-11-07T05:22:53.033Z,7.36
2017-11-07T05:23:53.026Z,7.34
2017-11-07T05:24:52.986Z,7.36
2017-11-07T05:25:52.975Z,7.43
2017-11-07T05:26:52.943Z,7.46
2017-11-07T05:27:52.922Z,7.40
2017-11-07T05:28:52.899Z,7.42
2017-11-07T05:29:52.938Z,7.36
2017-11-07T05:30:52.849Z,7.43
2017-11-07T05:31:52.826Z,7.44
2017-11-07T05:32:52.804Z,7.40
2017-11-07T05:33:52.782Z,7.42
2017-11-07T05:34:52.765Z,7.47
2017-11-07T05:35:52.744Z,7.40
2017-11-07T05:36:59.218Z,7.42
2017-11-07T05:37:52.689Z,7.39
2017-11-07T05:38:52.674Z,7.36
2017-11-07T05:39:52.643Z,7.50
2017-11-07T05:40:52.633Z,7.40
2017-11-07T05:41:52.598Z,7.37
2017-11-07T05:42:52.597Z,7.37
2017-11-07T05:43:52.554Z,7.40
2017-11-07T05:44:52.548Z,7.34
2017-11-07T05:45:52.508Z,7.36
2017-11-07T05:46:52.483Z,7.34
2017-11-07T05:47:52.462Z,7.42
2017-11-07T05:48:52.436Z,7.39
2017-11-07T05:49:52.417Z,7.36
2017-11-07T05:50:52.396Z,7.42
2017-11-07T05:51:52.377Z,7.37
2017-11-07T05:52:52.360Z,7.36
2017-11-07T05:53:52.321Z,7.40
2017-11-07T05:54:52.301Z,7.40
2017-11-07T05:55:52.280Z,7.44
2017-11-07T05:56:52.256Z,7.50
2017-11-07T05:57:52.250Z,7.34
2017-11-07T05:58:52.208Z,7.43
2017-11-07T05:59:52.196Z,7.46
2017-11-07T06:00:52.160Z,7.54
2017-11-07T06:01:52.141Z,7.36
2017-11-07T06:02:52.126Z,7.49
2017-11-07T06:03:52.093Z,7.42
2017-11-07T06:04:52.070Z,7.52
2017-11-07T06:05:52.047Z,7.52
2017-11-07T06:06:52.077Z,7.50
2017-11-07T06:07:52.008Z,7.50
2017-11-07T06:08:52.027Z,7.49
2017-11-07T06:09:51.961Z,7.40
2017-11-07T06:10:51.933Z,7.57
2017-11-07T06:11:51.915Z,7.40
2017-11-07T06:12:51.888Z,7.47
2017-11-07T06:13:51.863Z,7.44
2017-11-07T06:14:51.859Z,7.55
2017-11-07T06:15:51.830Z,7.44
2017-11-07T06:16:51.824Z,7.42
2017-11-07T06:17:51.776Z,7.49
2017-11-07T06:18:51.756Z,7.40
2017-11-07T06:19:51.727Z,7.47
2017-11-07T06:20:51.707Z,7.58
2017-11-07T06:21:51.681Z,7.54
2017-11-07T06:22:51.662Z,7.54
2017-11-07T06:23:51.641Z,7.46
2017-11-07T06:24:51.618Z,7.44
2017-11-07T06:25:51.589Z,7.52
2017-11-07T06:26:51.571Z,7.40
2017-11-07T06:27:51.547Z,7.54
2017-11-07T06:28:51.529Z,7.43
2017-11-07T06:29:51.501Z,7.50
2017-11-07T06:30:51.482Z,7.58
2017-11-07T06:31:51.460Z,7.46
2017-11-07T06:32:51.433Z,7.55
2017-11-07T06:33:51.415Z,7.42
2017-11-07T06:34:51.384Z,7.43
2017-11-07T06:35:51.363Z,7.46
2017-11-07T06:36:51.343Z,7.46
2017-11-07T06:37:51.325Z,7.60
2017-11-07T06:38:51.296Z,7.68
2017-11-07T06:39:51.271Z,7.47
2017-11-07T06:40:51.250Z,7.66
2017-11-07T06:41:51.225Z,7.49
2017-11-07T06:42:51.207Z,7.62
2017-11-07T06:43:51.185Z,7.58
2017-11-07T06:44:51.158Z,7.57
2017-11-07T06:45:51.133Z,7.64
2017-11-07T06:46:51.115Z,7.61
2017-11-07T06:47:51.092Z,7.57
2017-11-07T06:48:51.107Z,7.58
2017-11-07T06:49:51.041Z,7.58
2017-11-07T06:50:51.026Z,7.60
2017-11-07T06:51:50.999Z,7.58
2017-11-07T06:52:50.974Z,7.68
2017-11-07T06:53:50.953Z,7.52
2017-11-07T06:54:50.932Z,7.58
2017-11-07T06:55:50.906Z,7.57
2017-11-07T06:56:50.883Z,7.55
2017-11-07T06:57:50.866Z,7.52
2017-11-07T06:58:50.840Z,7.58
2017-11-07T06:59:50.820Z,7.58
2017-11-07T07:00:50.793Z,7.58
2017-11-07T07:01:50.799Z,7.55
2017-11-07T07:02:50.749Z,7.55
2017-11-07T07:03:50.729Z,7.55
2017-11-07T07:04:50.701Z,7.54
2017-11-07T07:05:50.683Z,7.55
2017-11-07T07:06:50.654Z,7.58
2017-11-07T07:07:50.638Z,7.55
2017-11-07T07:08:50.610Z,7.57
2017-11-07T07:09:50.585Z,7.57
2017-11-07T07:10:50.570Z,7.74
2017-11-07T07:11:50.543Z,7.62
2017-11-07T07:12:50.521Z,7.62
2017-11-07T07:13:50.499Z,7.62
2017-11-07T07:14:50.510Z,7.74
2017-11-07T07:15:50.472Z,7.60
2017-11-07T07:16:50.430Z,7.66
2017-11-07T07:17:50.407Z,7.60
2017-11-07T07:18:50.384Z,7.66
2017-11-07T07:19:50.355Z,7.66
2017-11-07T07:20:50.336Z,7.66
2017-11-07T07:21:50.314Z,7.66
2017-11-07T07:22:50.294Z,7.58
2017-11-07T07:23:50.267Z,7.64
2017-11-07T07:24:50.249Z,7.64
2017-11-07T07:25:50.230Z,7.64
2017-11-07T07:26:50.236Z,7.64
2017-11-07T07:27:50.203Z,7.57
2017-11-07T07:28:50.152Z,7.61
2017-11-07T07:29:50.135Z,7.60
2017-11-07T07:30:50.109Z,7.74
2017-11-07T07:31:50.085Z,7.62
2017-11-07T07:32:50.066Z,7.66
2017-11-07T07:33:50.041Z,7.71
2017-11-07T07:34:50.022Z,7.57
2017-11-07T07:35:49.995Z,7.68
2017-11-07T07:36:49.973Z,7.62
2017-11-07T07:37:49.948Z,7.69
2017-11-07T07:38:49.928Z,7.62
2017-11-07T07:39:49.907Z,7.76
2017-11-07T07:40:49.889Z,7.74
2017-11-07T07:41:49.861Z,7.74
2017-11-07T07:42:49.832Z,7.60
2017-11-07T07:43:49.844Z,7.68
2017-11-07T07:44:49.788Z,7.62
2017-11-07T07:45:49.765Z,7.71
2017-11-07T07:46:49.747Z,7.62
2017-11-07T07:47:49.719Z,7.61
2017-11-07T07:48:49.706Z,7.71
2017-11-07T07:49:49.673Z,7.58
2017-11-07T07:50:49.703Z,7.74
2017-11-07T07:51:49.627Z,7.64
2017-11-07T07:52:49.608Z,7.64
2017-11-07T07:53:49.585Z,7.64
2017-11-07T07:54:49.564Z,7.74
2017-11-07T07:55:49.547Z,7.68
2017-11-07T07:56:49.517Z,7.69
2017-11-07T07:57:49.508Z,7.80
2017-11-07T07:58:49.475Z,7.77
2017-11-07T07:59:49.450Z,7.73
2017-11-07T08:00:49.435Z,7.80
2017-11-07T08:01:49.401Z,7.88
2017-11-07T08:02:49.384Z,7.81
2017-11-07T08:03:49.365Z,7.84
2017-11-07T08:04:49.332Z,7.86
2017-11-07T08:05:49.316Z,7.84
2017-11-07T08:06:49.287Z,7.86
2017-11-07T08:07:49.297Z,7.87
2017-11-07T08:08:49.244Z,7.98
2017-11-07T08:09:49.220Z,7.94
2017-11-07T08:10:49.199Z,7.96
2017-11-07T08:11:49.172Z,7.94
2017-11-07T08:12:49.163Z,7.91
2017-11-07T08:13:49.130Z,7.87
2017-11-07T08:14:49.116Z,7.91
2017-11-07T08:15:49.086Z,7.96
2017-11-07T08:16:49.081Z,7.88
2017-11-07T08:17:49.034Z,7.87
2017-11-07T08:18:49.026Z,7.84
2017-11-07T08:19:49.019Z,8.01
2017-11-07T08:20:48.969Z,7.96
2017-11-07T08:21:48.944Z,7.91
2017-11-07T08:22:48.927Z,7.88
2017-11-07T08:23:48.901Z,7.94
2017-11-07T08:24:48.877Z,8.01
2017-11-07T08:25:48.855Z,7.88
2017-11-07T08:26:48.835Z,7.87
2017-11-07T08:27:48.812Z,7.86
2017-11-07T08:28:48.786Z,7.94
2017-11-07T08:29:48.764Z,7.88
2017-11-07T08:30:48.745Z,7.96
2017-11-07T08:31:48.740Z,7.94
2017-11-07T08:32:48.697Z,7.95
2017-11-07T08:33:48.674Z,7.95
2017-11-07T08:34:48.662Z,7.84
2017-11-07T08:35:48.627Z,7.94
2017-11-07T08:36:48.603Z,7.88
2017-11-07T08:37:48.587Z,7.94
2017-11-07T08:38:48.567Z,7.91
2017-11-07T08:39:48.544Z,7.87
2017-11-07T08:40:48.517Z,7.80
2017-11-07T08:41:48.492Z,8.02
2017-11-07T08:42:48.467Z,7.94
2017-11-07T08:43:48.448Z,7.98
2017-11-07T08:44:48.432Z,7.88
2017-11-07T08:45:48.404Z,7.92
2017-11-07T08:46:48.392Z,8.02
2017-11-07T08:47:48.387Z,7.96
2017-11-07T08:48:48.338Z,7.96
2017-11-07T08:49:48.308Z,7.98
2017-11-07T08:50:48.301Z,7.91
2017-11-07T08:51:48.274Z,7.98
2017-11-07T08:52:48.247Z,7.99
2017-11-07T08:53:48.218Z,8.06
2017-11-07T08:54:48.199Z,8.02
2017-11-07T08:55:48.180Z,7.92
2017-11-07T08:56:48.153Z,7.96
2017-11-07T08:57:48.144Z,8.05
2017-11-07T08:58:48.103Z,7.96
2017-11-07T08:59:48.084Z,7.98
2017-11-07T09:00:48.060Z,7.98
2017-11-07T09:01:48.039Z,8.06
2017-11-07T09:02:48.025Z,7.99
2017-11-07T09:03:47.997Z,7.95
2017-11-07T09:04:47.972Z,8.06
2017-11-07T09:05:47.946Z,8.04
2017-11-07T09:06:47.924Z,7.94
2017-11-07T09:07:47.900Z,7.98
2017-11-07T09:08:47.877Z,7.92
2017-11-07T09:09:47.855Z,8.10
2017-11-07T09:10:47.835Z,7.94
2017-11-07T09:11:47.826Z,8.01
2017-11-07T09:12:47.787Z,7.99
2017-11-07T09:13:47.766Z,8.04
2017-11-07T09:14:47.739Z,7.92
2017-11-07T09:15:47.723Z,8.05
2017-11-07T09:16:47.701Z,8.06
2017-11-07T09:17:47.674Z,7.98
2017-11-07T09:18:47.650Z,7.94
2017-11-07T09:19:47.634Z,8.10
2017-11-07T09:20:47.609Z,8.10
2017-11-07T09:21:47.580Z,8.05
2017-11-07T09:22:47.565Z,7.96
2017-11-07T09:23:47.544Z,8.09
2017-11-07T09:24:47.522Z,7.94
2017-11-07T09:25:47.498Z,7.96
2017-11-07T09:26:47.473Z,7.94
2017-11-07T09:27:47.481Z,7.96
2017-11-07T09:28:47.425Z,7.92
2017-11-07T09:29:47.401Z,7.91
2017-11-07T09:30:47.379Z,7.96
2017-11-07T09:31:47.364Z,8.02
2017-11-07T09:32:47.332Z,7.95
2017-11-07T09:33:47.320Z,7.96
2017-11-07T09:34:47.287Z,7.96
2017-11-07T09:35:47.267Z,7.91
2017-11-07T09:36:47.246Z,7.98
2017-11-07T09:37:47.220Z,8.01
2017-11-07T09:38:47.195Z,8.01
2017-11-07T09:39:47.177Z,7.96
2017-11-07T09:40:47.153Z,7.92
2017-11-07T09:41:47.136Z,7.98
2017-11-07T09:42:47.111Z,8.01
2017-11-07T09:43:47.083Z,8.05
2017-11-07T09:44:47.075Z,7.94
2017-11-07T09:45:47.037Z,7.99
2017-11-07T09:46:47.013Z,7.91
2017-11-07T09:47:46.993Z,7.96
2017-11-07T09:48:46.971Z,7.86
2017-11-07T09:49:46.970Z,7.96
2017-11-07T09:50:46.924Z,7.91
2017-11-07T09:51:46.900Z,7.91
2017-11-07T09:52:46.881Z,8.04
2017-11-07T09:53:46.860Z,7.95
2017-11-07T09:54:46.850Z,7.95
2017-11-07T09:55:46.816Z,7.96
2017-11-07T09:56:46.799Z,7.95
2017-11-07T09:57:46.762Z,7.95
2017-11-07T09:58:46.749Z,7.94
2017-11-07T09:59:46.729Z,7.94
2017-11-07T10:00:46.704Z,8.01
2017-11-07T10:01:46.697Z,7.94
2017-11-07T10:02:46.659Z,7.94
2017-11-07T10:03:46.628Z,7.94
2017-11-07T10:04:46.607Z,7.96
2017-11-07T10:05:46.614Z,7.92
2017-11-07T10:06:46.571Z,7.96
2017-11-07T10:07:46.548Z,7.94
2017-11-07T10:08:49.300Z,8.01
2017-11-07T10:09:46.533Z,7.96
2017-11-07T10:10:46.471Z,8.05
2017-11-07T10:11:46.452Z,7.98
2017-11-07T10:12:46.429Z,7.99
2017-11-07T10:13:46.403Z,7.94
2017-11-07T10:14:46.383Z,7.87
2017-11-07T10:15:46.371Z,7.95
2017-11-07T10:16:46.341Z,7.99
2017-11-07T10:17:46.314Z,7.92
2017-11-07T10:18:46.297Z,7.98
2017-11-07T10:19:46.266Z,8.12
2017-11-07T10:20:46.247Z,7.98
2017-11-07T10:21:46.222Z,7.94
2017-11-07T10:22:46.222Z,7.92
2017-11-07T10:23:46.176Z,8.02
2017-11-07T10:24:46.163Z,7.99
2017-11-07T10:25:46.140Z,7.98
2017-11-07T10:26:46.109Z,7.98
2017-11-07T10:27:46.094Z,7.99
2017-11-07T10:28:46.067Z,7.92
2017-11-07T10:29:46.038Z,7.94
2017-11-07T10:30:46.027Z,7.94
2017-11-07T10:31:45.999Z,7.99
2017-11-07T10:32:45.977Z,7.95
2017-11-07T10:33:45.948Z,7.95
2017-11-07T10:34:45.929Z,7.88
2017-11-07T10:35:45.913Z,7.99
2017-11-07T10:36:45.879Z,7.87
2017-11-07T10:37:45.856Z,7.95
2017-11-07T10:38:45.832Z,7.96
2017-11-07T10:39:45.816Z,7.98
2017-11-07T10:40:45.789Z,8.05
2017-11-07T10:41:45.784Z,7.92
2017-11-07T10:42:45.757Z,7.94
2017-11-07T10:43:45.721Z,7.87
2017-11-07T10:44:45.699Z,8.05
2017-11-07T10:45:45.708Z,7.86
2017-11-07T10:46:45.661Z,7.92
2017-11-07T10:47:45.671Z,7.98
2017-11-07T10:48:45.606Z,7.88
2017-11-07T10:49:45.591Z,7.86
2017-11-07T10:50:45.570Z,7.83
2017-11-07T10:51:45.542Z,7.96
2017-11-07T10:52:45.523Z,7.98
2017-11-07T10:53:45.498Z,7.87
2017-11-07T10:54:45.484Z,7.81
2017-11-07T10:55:45.452Z,7.92
2017-11-07T10:56:45.434Z,7.86
2017-11-07T10:57:45.403Z,7.98
2017-11-07T10:58:45.380Z,7.96
2017-11-07T10:59:45.365Z,7.88
2017-11-07T11:00:45.341Z,7.88
2017-11-07T11:01:45.315Z,7.86
2017-11-07T11:02:45.288Z,7.88
2017-11-07T11:03:45.300Z,7.87
2017-11-07T11:04:45.244Z,7.81
2017-11-07T11:05:45.229Z,7.87
2017-11-07T11:06:45.202Z,7.87
2017-11-07T11:07:45.191Z,7.92
2017-11-07T11:08:45.152Z,7.81
2017-11-07T11:09:45.130Z,7.88
2017-11-07T11:10:45.118Z,7.84
2017-11-07T11:11:45.091Z,7.87
2017-11-07T11:12:45.109Z,7.98
2017-11-07T11:13:45.046Z,7.87
2017-11-07T11:14:45.023Z,7.86
2017-11-07T11:15:44.994Z,7.86
2017-11-07T11:16:44.973Z,7.84
2017-11-07T11:17:44.947Z,7.84
2017-11-07T11:18:44.928Z,7.86
2017-11-07T11:19:44.919Z,7.84
2017-11-07T11:20:44.881Z,7.80
2017-11-07T11:21:44.866Z,7.83
2017-11-07T11:22:44.844Z,7.86
2017-11-07T11:23:44.813Z,7.86
2017-11-07T11:24:44.792Z,7.83
2017-11-07T11:25:44.769Z,7.81
2017-11-07T11:26:44.752Z,7.81
2017-11-07T11:27:44.721Z,7.88
2017-11-07T11:28:44.702Z,7.88
2017-11-07T11:29:44.684Z,7.87
2017-11-07T11:30:44.656Z,7.81
2017-11-07T11:31:44.633Z,7.87
2017-11-07T11:32:44.609Z,7.91
2017-11-07T11:33:44.591Z,7.84
2017-11-07T11:34:44.564Z,7.98
2017-11-07T11:35:44.546Z,7.83
2017-11-07T11:36:44.517Z,7.83
2017-11-07T11:37:44.501Z,7.87
2017-11-07T11:38:44.476Z,7.87
2017-11-07T11:39:44.454Z,7.81
2017-11-07T11:40:44.428Z,7.88
2017-11-07T11:41:44.405Z,7.95
2017-11-07T11:42:44.382Z,7.91
2017-11-07T11:43:44.359Z,7.87
2017-11-07T11:44:44.338Z,7.96
2017-11-07T11:45:44.315Z,7.92
2017-11-07T11:46:44.297Z,7.88
2017-11-07T11:47:44.267Z,7.99
2017-11-07T11:48:44.250Z,7.96
2017-11-07T11:49:44.223Z,7.92
2017-11-07T11:50:44.201Z,7.94
2017-11-07T11:51:44.180Z,7.88
2017-11-07T11:52:44.159Z,7.94
2017-11-07T11:53:44.131Z,7.94
2017-11-07T11:54:44.116Z,7.91
2017-11-07T11:55:44.103Z,7.94
2017-11-07T11:56:44.064Z,7.94
2017-11-07T11:57:44.041Z,7.99
2017-11-07T11:58:44.020Z,7.88
2017-11-07T11:59:44.003Z,7.98
2017-11-07T12:00:43.974Z,7.99
2017-11-07T12:01:43.949Z,7.95
2017-11-07T12:02:43.928Z,7.92
2017-11-07T12:03:43.915Z,7.99
2017-11-07T12:04:43.890Z,7.98
2017-11-07T12:05:43.862Z,8.09
2017-11-07T12:06:43.868Z,8.09
2017-11-07T12:07:43.821Z,7.99
2017-11-07T12:08:43.794Z,8.06
2017-11-07T12:09:43.774Z,7.96
2017-11-07T12:10:43.754Z,7.94
2017-11-07T12:11:43.733Z,8.01
2017-11-07T12:12:43.704Z,8.05
2017-11-07T12:13:43.684Z,7.98
2017-11-07T12:14:43.656Z,7.99
2017-11-07T12:15:43.638Z,7.94
2017-11-07T12:16:43.616Z,7.96
2017-11-07T12:17:43.589Z,7.92
2017-11-07T12:18:43.570Z,7.95
2017-11-07T12:19:43.559Z,7.94
2017-11-07T12:20:43.524Z,8.09
2017-11-07T12:21:43.496Z,7.95
2017-11-07T12:22:43.476Z,7.98
2017-11-07T12:23:43.467Z,8.09
2017-11-07T12:24:43.428Z,8.05
2017-11-07T12:25:43.418Z,8.09
2017-11-07T12:26:43.384Z,7.95
2017-11-07T12:27:43.363Z,8.09
2017-11-07T12:28:43.340Z,8.04
2017-11-07T12:29:43.318Z,7.91
2017-11-07T12:30:43.297Z,8.06
2017-11-07T12:31:43.275Z,7.99
2017-11-07T12:32:43.251Z,7.98
2017-11-07T12:33:43.227Z,8.06
2017-11-07T12:34:43.211Z,8.02
2017-11-07T12:35:43.187Z,8.04
2017-11-07T12:36:43.160Z,7.94
2017-11-07T12:37:43.138Z,8.05
2017-11-07T12:38:43.116Z,8.04
2017-11-07T12:39:45.812Z,8.04
2017-11-07T12:40:43.080Z,8.09
2017-11-07T12:41:43.045Z,8.04
2017-11-07T12:42:43.028Z,8.02
2017-11-07T12:43:43.001Z,8.09
2017-11-07T12:44:42.980Z,8.13
2017-11-07T12:45:42.961Z,8.06
2017-11-07T12:46:42.980Z,8.09
2017-11-07T12:47:42.999Z,8.02
2017-11-07T12:48:42.887Z,8.17
2017-11-07T12:49:42.863Z,8.10
2017-11-07T12:50:42.842Z,8.12
2017-11-07T12:51:42.821Z,8.09
2017-11-07T12:52:42.796Z,8.14
2017-11-07T12:53:42.775Z,8.16
2017-11-07T12:54:42.752Z,8.19
2017-11-07T12:55:42.729Z,8.02
2017-11-07T12:56:42.706Z,8.06
2017-11-07T12:57:42.685Z,8.06
2017-11-07T12:58:42.667Z,8.06
2017-11-07T12:59:42.641Z,8.06
2017-11-07T13:00:42.621Z,8.20
2017-11-07T13:01:42.593Z,8.06
2017-11-07T13:02:42.574Z,8.09
2017-11-07T13:03:42.558Z,8.20
2017-11-07T13:04:42.529Z,8.09
2017-11-07T13:05:42.503Z,8.14
2017-11-07T13:06:42.489Z,8.12
2017-11-07T13:07:42.459Z,8.12
2017-11-07T13:08:42.436Z,8.05
2017-11-07T13:09:42.418Z,8.10
2017-11-07T13:11:10.330Z,8.13
2017-11-07T13:11:42.376Z,8.17
2017-11-07T13:12:42.345Z,8.14
2017-11-07T13:13:42.331Z,8.20
2017-11-07T13:14:42.297Z,8.24
2017-11-07T13:15:42.278Z,8.16
2017-11-07T13:16:42.255Z,8.21
2017-11-07T13:17:42.234Z,8.16